createdAt,value
2023-03-28T00:01:09.220Z,3.50
2023-03-28T00:03:42.712Z,3.73
2023-03-28T00:06:13.960Z,3.63
2023-03-28T00:08:42.082Z,4.00
2023-03-28T00:11:12.891Z,3.67
2023-03-28T00:13:40.454Z,3.90
2023-03-28T00:16:12.982Z,3.70
2023-03-28T00:18:42.890Z,3.93
2023-03-28T00:21:23.831Z,3.90
2023-03-28T00:23:56.492Z,3.90
2023-03-28T00:26:26.759Z,3.43
2023-03-28T00:28:56.861Z,3.30
2023-03-28T00:31:26.573Z,4.00
2023-03-28T00:33:55.005Z,3.73
2023-03-28T00:36:26.822Z,4.10
2023-03-28T00:38:54.754Z,3.67
2023-03-28T00:41:23.865Z,4.47
2023-03-28T00:43:54.748Z,4.67
2023-03-28T00:46:35.596Z,4.63
2023-03-28T00:49:10.025Z,4.20
2023-03-28T00:51:44.173Z,4.17
2023-03-28T00:54:17.397Z,4.77
2023-03-28T00:56:49.230Z,4.60
2023-03-28T00:59:20.242Z,4.50
2023-03-28T01:01:49.173Z,4.67
2023-03-28T01:04:22.276Z,4.47
2023-03-28T01:06:57.305Z,4.70
2023-03-28T01:09:25.148Z,4.40
2023-03-28T01:11:56.979Z,5.03
2023-03-28T01:14:29.164Z,4.23
2023-03-28T01:16:59.188Z,4.60
2023-03-28T01:19:59.205Z,4.53
2023-03-28T01:22:33.046Z,4.60
2023-03-28T01:25:31.496Z,4.23
2023-03-28T01:28:07.961Z,4.80
2023-03-28T01:30:43.684Z,4.47
2023-03-28T01:34:15.113Z,4.63
2023-03-28T01:36:57.585Z,4.13
2023-03-28T01:39:53.238Z,4.60
2023-03-28T01:45:40.515Z,3.90
2023-03-28T01:48:36.075Z,4.73
2023-03-28T01:51:24.733Z,4.80
2023-03-28T01:53:56.334Z,4.30
2023-03-28T01:56:42.432Z,4.60
2023-03-28T01:59:23.173Z,4.67
2023-03-28T02:02:27.575Z,4.47
2023-03-28T02:05:04.625Z,4.60
2023-03-28T02:07:38.589Z,4.23
2023-03-28T02:10:14.087Z,5.13
2023-03-28T02:13:05.558Z,4.80
2023-03-28T02:16:01.934Z,4.20
2023-03-28T02:18:53.132Z,5.03
2023-03-28T02:21:32.111Z,4.80
2023-03-28T02:24:26.138Z,4.20
2023-03-28T02:27:12.365Z,5.10
2023-03-28T02:29:50.383Z,4.25
2023-03-28T02:32:34.197Z,4.27
2023-03-28T02:35:05.455Z,4.43
2023-03-28T02:38:02.123Z,4.80
2023-03-28T02:40:55.339Z,4.60
2023-03-28T02:43:41.900Z,4.73
2023-03-28T02:46:21.034Z,4.40
2023-03-28T02:49:12.367Z,4.27
2023-03-28T02:52:04.182Z,3.90
2023-03-28T02:54:45.906Z,3.87
2023-03-28T02:57:46.422Z,4.27
2023-03-28T03:00:18.841Z,3.67
2023-03-28T03:02:50.613Z,3.93
2023-03-28T03:05:23.317Z,5.00
2023-03-28T03:07:51.643Z,4.60
2023-03-28T03:10:19.332Z,4.77
2023-03-28T03:12:48.612Z,4.23
2023-03-28T03:15:19.294Z,4.33
2023-03-28T03:17:58.918Z,4.37
2023-03-28T03:20:33.713Z,4.27
2023-03-28T03:23:03.787Z,4.93
2023-03-28T03:25:35.146Z,4.83
2023-03-28T03:28:38.249Z,4.93
2023-03-28T03:31:07.336Z,4.90
2023-03-28T03:34:10.443Z,4.43
2023-03-28T03:36:43.332Z,4.27
2023-03-28T03:39:11.124Z,4.47
2023-03-28T03:41:38.995Z,4.70
2023-03-28T03:44:07.338Z,4.53
2023-03-28T03:46:34.966Z,4.73
2023-03-28T03:49:03.056Z,5.07
2023-03-28T03:51:30.738Z,4.50
2023-03-28T03:53:58.515Z,4.97
2023-03-28T03:56:35.098Z,4.43
2023-03-28T03:59:02.738Z,4.60
2023-03-28T04:01:32.623Z,5.60
2023-03-28T04:04:32.544Z,5.03
2023-03-28T04:07:16.253Z,4.67
2023-03-28T04:09:45.816Z,5.13
2023-03-28T04:12:14.670Z,5.23
2023-03-28T04:15:00.538Z,5.95
2023-03-28T04:17:37.915Z,4.97
2023-03-28T04:20:13.913Z,5.40
2023-03-28T04:23:02.074Z,5.20
2023-03-28T04:25:32.042Z,5.30
2023-03-28T04:28:11.449Z,5.15
2023-03-28T04:30:47.545Z,5.05
2023-03-28T04:33:45.454Z,5.38
2023-03-28T04:36:18.886Z,4.90
2023-03-28T04:39:02.444Z,4.57
2023-03-28T04:41:56.632Z,4.25
2023-03-28T04:44:47.228Z,5.05
2023-03-28T04:47:15.335Z,4.78
2023-03-28T04:49:42.833Z,6.45
2023-03-28T04:52:11.243Z,4.68
2023-03-28T04:54:39.314Z,4.10
2023-03-28T04:57:11.789Z,3.65
2023-03-28T04:59:44.535Z,3.80
2023-03-28T05:02:20.318Z,3.90
2023-03-28T05:05:06.957Z,3.70
2023-03-28T05:07:35.245Z,3.38
2023-03-28T05:10:12.866Z,4.05
2023-03-28T05:12:42.066Z,3.97
2023-03-28T05:15:10.542Z,5.32
2023-03-28T05:17:53.081Z,4.63
2023-03-28T05:25:26.136Z,4.80
2023-03-28T05:27:56.040Z,3.67
2023-03-28T05:30:24.879Z,4.68
2023-03-28T05:32:55.474Z,4.00
2023-03-28T05:35:23.197Z,2.78
2023-03-28T05:37:51.662Z,2.72
2023-03-28T05:40:20.337Z,2.80
2023-03-28T05:42:47.856Z,3.00
2023-03-28T05:45:17.454Z,3.05
2023-03-28T05:47:45.025Z,2.60
2023-03-28T05:50:14.190Z,3.00
2023-03-28T05:52:41.650Z,3.35
2023-03-28T05:55:10.456Z,2.83
2023-03-28T05:57:40.142Z,3.25
2023-03-28T06:00:10.731Z,2.65
2023-03-28T06:02:46.818Z,2.60
2023-03-28T06:05:18.481Z,2.92
2023-03-28T06:07:46.852Z,2.85
2023-03-28T06:10:17.314Z,2.55
2023-03-28T06:12:56.378Z,2.50
2023-03-28T06:15:24.145Z,3.22
2023-03-28T06:17:51.929Z,2.80
2023-03-28T06:20:19.746Z,3.15
2023-03-28T06:22:47.904Z,3.10
2023-03-28T06:25:15.694Z,3.00
2023-03-28T06:27:43.198Z,3.30
2023-03-28T06:30:11.690Z,3.75
2023-03-28T06:32:53.362Z,3.63
2023-03-28T06:35:20.955Z,3.47
2023-03-28T06:37:48.789Z,4.10
2023-03-28T06:40:25.270Z,4.35
2023-03-28T06:42:53.605Z,4.63
2023-03-28T06:45:50.566Z,3.00
2023-03-28T06:48:19.683Z,4.15
2023-03-28T06:51:06.239Z,4.50
2023-03-28T06:53:37.771Z,4.07
2023-03-28T06:56:06.716Z,3.88
2023-03-28T06:58:34.312Z,4.28
2023-03-28T07:01:08.361Z,4.20
2023-03-28T07:03:50.714Z,4.30
2023-03-28T07:06:22.414Z,4.63
2023-03-28T07:08:50.236Z,4.55
2023-03-28T07:11:21.613Z,4.22
2023-03-28T07:13:51.209Z,4.78
2023-03-28T07:16:21.074Z,4.28
2023-03-28T07:18:50.137Z,5.00
2023-03-28T07:21:25.614Z,5.35
2023-03-28T07:23:56.244Z,3.80
2023-03-28T07:26:28.667Z,4.18
2023-03-28T07:28:56.534Z,4.10
2023-03-28T07:31:25.824Z,5.13
2023-03-28T07:33:57.789Z,4.57
2023-03-28T07:36:53.353Z,4.28
2023-03-28T07:40:40.500Z,4.82
2023-03-28T07:43:57.067Z,4.20
2023-03-28T07:47:09.740Z,5.70
2023-03-28T07:50:48.522Z,5.03
2023-03-28T07:54:01.892Z,4.40
2023-03-28T07:57:04.381Z,4.68
2023-03-28T08:00:00.923Z,4.80
2023-03-28T08:02:50.535Z,4.75
2023-03-28T08:05:18.684Z,5.07
2023-03-28T08:07:47.146Z,4.90
2023-03-28T08:10:14.736Z,5.78
2023-03-28T08:12:42.960Z,4.82
2023-03-28T08:15:11.482Z,4.75
2023-03-28T08:17:39.202Z,4.70
2023-03-28T08:20:10.159Z,4.78
2023-03-28T08:23:02.984Z,4.97
2023-03-28T08:25:49.245Z,4.95
2023-03-28T08:28:22.320Z,4.65
2023-03-28T08:30:50.409Z,5.10
2023-03-28T08:33:17.866Z,5.45
2023-03-28T08:35:45.542Z,4.78
2023-03-28T08:38:18.683Z,3.97
2023-03-28T08:41:01.037Z,4.45
2023-03-28T08:43:59.389Z,3.72
2023-03-28T08:46:30.973Z,4.13
2023-03-28T08:49:04.474Z,3.97
2023-03-28T08:51:47.646Z,4.75
2023-03-28T08:54:47.803Z,5.45
2023-03-28T08:57:25.508Z,4.10
2023-03-28T09:00:01.236Z,4.03
2023-03-28T09:02:30.147Z,3.72
2023-03-28T09:05:11.948Z,3.05
2023-03-28T09:07:54.879Z,2.50
2023-03-28T09:10:47.371Z,2.80
2023-03-28T09:13:36.216Z,3.20
2023-03-28T09:16:36.602Z,2.80
2023-03-28T09:19:44.724Z,2.80
2023-03-28T09:23:01.015Z,2.83
2023-03-28T09:25:51.661Z,3.08
2023-03-28T09:29:03.628Z,2.88
2023-03-28T09:31:36.039Z,3.00
2023-03-28T09:34:07.144Z,2.90
2023-03-28T09:36:48.897Z,3.40
2023-03-28T09:39:39.542Z,3.53
2023-03-28T09:42:15.362Z,3.88
2023-03-28T09:45:02.793Z,3.60
2023-03-28T09:47:53.533Z,4.70
2023-03-28T09:50:25.664Z,4.88
2023-03-28T09:52:58.753Z,4.63
2023-03-28T09:55:29.257Z,4.05
2023-03-28T09:58:06.772Z,3.55
2023-03-28T10:00:53.359Z,3.75
2023-03-28T10:03:52.748Z,4.30
2023-03-28T10:06:25.904Z,2.88
2023-03-28T10:09:08.551Z,2.35
2023-03-28T10:11:59.386Z,1.80
2023-03-28T10:14:45.249Z,2.03
2023-03-28T10:17:47.088Z,2.08
2023-03-28T10:20:30.760Z,2.00
2023-03-28T10:23:49.457Z,2.50
2023-03-28T10:47:37.245Z,3.00
2023-03-28T10:50:44.855Z,2.92
2023-03-28T10:53:54.916Z,3.30
2023-03-28T10:56:55.929Z,2.97
2023-03-28T11:00:07.105Z,2.75
2023-03-28T11:02:58.954Z,3.03
2023-03-28T11:05:49.884Z,3.55
2023-03-28T11:09:16.916Z,2.53
2023-03-28T11:14:21.779Z,2.40
2023-03-28T11:15:40.536Z,2.83
2023-03-28T11:18:28.053Z,2.40
2023-03-28T11:21:18.842Z,1.83
2023-03-28T11:24:02.901Z,2.58
2023-03-28T11:27:20.517Z,2.65
2023-03-28T11:30:14.741Z,2.55
2023-03-28T11:33:41.047Z,3.00
2023-03-28T11:36:57.482Z,2.80
2023-03-28T11:39:54.414Z,2.22
2023-03-28T11:42:43.296Z,2.25
2023-03-28T11:45:47.666Z,2.35
2023-03-28T11:48:44.616Z,2.78
2023-03-28T11:51:25.264Z,3.05
2023-03-28T11:54:10.824Z,3.00
2023-03-28T11:56:53.385Z,2.78
2023-03-28T12:00:34.023Z,3.03
2023-03-28T12:03:24.498Z,2.80
2023-03-28T12:06:04.774Z,2.58
2023-03-28T12:08:57.822Z,2.95
2023-03-28T12:11:36.824Z,3.50
2023-03-28T12:16:51.116Z,2.88
2023-03-28T12:19:32.026Z,3.60
2023-03-28T12:22:15.917Z,3.28
2023-03-28T12:25:04.212Z,3.65
2023-03-28T12:27:42.970Z,3.70
2023-03-28T12:30:39.257Z,3.70
2023-03-28T12:33:20.349Z,3.60
2023-03-28T12:37:01.946Z,4.07
2023-03-28T12:40:13.366Z,4.23
2023-03-28T12:42:48.950Z,3.77
2023-03-28T12:46:16.634Z,4.10
2023-03-28T12:54:20.789Z,4.80
2023-03-28T13:09:54.944Z,5.50
2023-03-28T13:13:06.538Z,5.32
2023-03-28T13:15:34.800Z,5.00
2023-03-28T13:18:17.661Z,5.20
2023-03-28T13:20:46.231Z,4.68
2023-03-28T13:23:16.708Z,4.55
2023-03-28T13:26:06.537Z,5.60
2023-03-28T13:28:41.472Z,5.40
2023-03-28T13:31:11.811Z,5.40
2023-03-28T13:33:48.566Z,4.65
2023-03-28T13:36:24.052Z,4.57
2023-03-28T13:39:23.999Z,5.00
2023-03-28T13:41:52.228Z,4.40
2023-03-28T13:44:33.963Z,3.83
2023-03-28T13:47:01.677Z,4.07
2023-03-28T13:49:47.232Z,3.83
2023-03-28T13:52:19.361Z,4.43
2023-03-28T13:54:53.977Z,4.22
2023-03-28T13:57:26.131Z,3.78
2023-03-28T14:00:05.276Z,4.07
2023-03-28T14:02:54.763Z,3.65
2023-03-28T14:05:27.424Z,3.88
2023-03-28T14:08:01.550Z,3.97
2023-03-28T14:10:37.235Z,4.05
2023-03-28T14:13:11.113Z,4.70
2023-03-28T14:15:43.306Z,3.97
2023-03-28T14:18:26.057Z,3.60
2023-03-28T14:20:55.836Z,3.75
2023-03-28T14:23:29.868Z,3.50
2023-03-28T14:26:15.838Z,4.45
2023-03-28T14:28:45.949Z,4.70
2023-03-28T14:31:37.124Z,3.75
2023-03-28T14:34:24.359Z,3.25
2023-03-28T14:37:06.508Z,4.30
2023-03-28T14:39:36.678Z,3.80
2023-03-28T14:42:08.523Z,3.65
2023-03-28T14:44:40.653Z,4.53
2023-03-28T14:47:13.508Z,3.35
2023-03-28T14:49:41.324Z,4.15
2023-03-28T14:52:16.405Z,4.00
2023-03-28T14:54:49.415Z,3.60
2023-03-28T14:57:18.401Z,3.80
2023-03-28T14:59:48.794Z,3.65
2023-03-28T15:02:23.370Z,3.78
2023-03-28T15:04:51.596Z,3.28
2023-03-28T15:07:26.720Z,3.10
2023-03-28T15:10:11.289Z,3.70
2023-03-28T15:12:43.704Z,3.60
2023-03-28T15:15:28.202Z,2.97
2023-03-28T15:17:58.663Z,3.17
2023-03-28T15:20:34.349Z,3.08
2023-03-28T15:23:05.936Z,2.90
2023-03-28T15:25:35.765Z,5.70
2023-03-28T15:28:06.758Z,3.17
2023-03-28T15:30:36.222Z,3.42
2023-03-28T15:33:07.079Z,3.20
2023-03-28T15:35:39.670Z,3.08
2023-03-28T15:38:15.606Z,3.13
2023-03-28T15:40:46.617Z,3.10
2023-03-28T15:43:26.036Z,3.35
2023-03-28T15:46:01.714Z,3.97
2023-03-28T15:48:36.353Z,3.90
2023-03-28T15:51:06.534Z,4.22
2023-03-28T15:53:37.354Z,3.78
2023-03-28T15:56:11.390Z,3.20
2023-03-28T15:58:45.116Z,3.78
2023-03-28T16:01:57.498Z,3.95
2023-03-28T16:04:29.122Z,4.13
2023-03-28T16:07:25.515Z,4.18
2023-03-28T16:18:05.904Z,4.68
2023-03-28T16:20:40.947Z,4.75
2023-03-28T16:23:08.525Z,4.32
2023-03-28T16:25:36.284Z,4.90
2023-03-28T16:28:03.963Z,4.75
2023-03-28T16:30:36.974Z,5.07
2023-03-28T16:33:06.444Z,5.25
2023-03-28T16:35:34.200Z,5.22
2023-03-28T16:38:02.517Z,4.38
2023-03-28T16:40:30.220Z,4.18
2023-03-28T16:42:58.622Z,5.30
2023-03-28T16:45:26.184Z,5.38
2023-03-28T16:47:54.058Z,4.47
2023-03-28T16:50:21.640Z,4.38
2023-03-28T16:52:49.116Z,4.20
2023-03-28T16:55:18.192Z,4.78
2023-03-28T16:57:46.532Z,5.03
2023-03-28T17:00:18.188Z,5.20
2023-03-28T17:02:47.616Z,5.53
2023-03-28T17:05:17.150Z,4.50
2023-03-28T17:07:44.824Z,4.45
2023-03-28T17:10:12.531Z,4.97
2023-03-28T17:12:41.484Z,5.55
2023-03-28T17:15:09.649Z,4.15
2023-03-28T17:17:44.807Z,4.30
2023-03-28T17:20:12.907Z,3.88
2023-03-28T17:22:42.566Z,4.10
2023-03-28T17:25:10.194Z,3.67
2023-03-28T17:27:37.766Z,3.75
2023-03-28T17:30:06.298Z,3.90
2023-03-28T17:32:34.765Z,3.80
2023-03-28T17:35:02.418Z,3.95
2023-03-28T17:37:30.425Z,3.67
2023-03-28T17:39:59.162Z,3.42
2023-03-28T17:42:29.631Z,3.05
2023-03-28T17:44:58.941Z,3.28
2023-03-28T17:47:26.633Z,3.28
2023-03-28T17:49:56.208Z,4.30
2023-03-28T17:52:24.735Z,3.33
2023-03-28T17:54:52.745Z,2.92
2023-03-28T17:57:21.516Z,3.80
2023-03-28T17:59:52.156Z,3.65
2023-03-28T18:02:20.344Z,2.70
2023-03-28T18:04:59.117Z,3.28
2023-03-28T18:07:31.204Z,3.25
2023-03-28T18:10:03.419Z,2.67
2023-03-28T18:12:31.321Z,3.30
2023-03-28T18:15:00.949Z,3.65
2023-03-28T18:17:29.748Z,3.45
2023-03-28T18:19:59.001Z,3.05
2023-03-28T18:22:27.285Z,3.13
2023-03-28T18:24:55.109Z,4.00
2023-03-28T18:27:22.760Z,3.33
2023-03-28T18:29:50.521Z,3.45
2023-03-28T18:32:18.371Z,2.85
2023-03-28T18:34:46.872Z,3.30
2023-03-28T18:37:14.576Z,3.73
2023-03-28T18:39:42.539Z,3.58
2023-03-28T18:42:10.754Z,3.40
2023-03-28T18:44:39.061Z,3.80
2023-03-28T18:47:06.709Z,3.15
2023-03-28T18:49:34.781Z,3.50
2023-03-28T18:52:04.962Z,3.40
2023-03-28T18:54:35.245Z,3.50
2023-03-28T18:57:03.494Z,3.20
2023-03-28T19:00:17.340Z,3.47
2023-03-28T19:07:22.653Z,3.35
2023-03-28T19:10:13.505Z,3.38
2023-03-28T19:12:41.301Z,3.40
2023-03-28T19:15:11.120Z,3.43
2023-03-28T19:17:40.179Z,4.00
2023-03-28T19:20:12.809Z,3.43
2023-03-28T19:22:41.418Z,3.67
2023-03-28T19:25:09.535Z,3.80
2023-03-28T19:27:37.791Z,3.73
2023-03-28T19:30:06.605Z,3.90
2023-03-28T19:32:34.290Z,4.43
2023-03-28T19:35:01.925Z,4.03
2023-03-28T19:37:30.804Z,4.70
2023-03-28T19:40:01.411Z,4.03
2023-03-28T19:42:30.207Z,4.63
2023-03-28T19:44:59.833Z,4.25
2023-03-28T19:47:27.341Z,4.07
2023-03-28T19:49:54.959Z,4.75
2023-03-28T19:52:22.474Z,4.20
2023-03-28T19:54:50.778Z,4.73
2023-03-28T19:57:18.322Z,4.17
2023-03-28T19:59:45.883Z,4.67
2023-03-28T20:02:13.471Z,5.47
2023-03-28T20:04:41.106Z,4.53
2023-03-28T20:07:08.601Z,5.03
2023-03-28T20:09:36.098Z,4.60
2023-03-28T20:12:03.893Z,4.30
2023-03-28T20:14:31.705Z,4.70
2023-03-28T20:16:59.297Z,4.83
2023-03-28T20:19:26.839Z,5.13
2023-03-28T20:21:54.367Z,4.97
2023-03-28T20:24:21.822Z,4.50
2023-03-28T20:26:49.470Z,4.67
2023-03-28T20:29:17.144Z,5.07
2023-03-28T20:31:44.639Z,4.53
2023-03-28T20:34:12.268Z,4.57
2023-03-28T20:36:41.523Z,4.67
2023-03-28T20:39:12.046Z,4.57
2023-03-28T20:41:40.203Z,4.80
2023-03-28T20:44:09.060Z,4.67
2023-03-28T20:46:39.833Z,4.70
2023-03-28T20:49:07.972Z,4.73
2023-03-28T20:51:39.468Z,4.13
2023-03-28T20:54:07.145Z,4.60
2023-03-28T20:56:36.854Z,4.67
2023-03-28T20:59:06.019Z,4.67
2023-03-28T21:01:33.820Z,5.00
2023-03-28T21:04:02.372Z,3.80
2023-03-28T21:06:36.111Z,5.40
2023-03-28T21:09:07.146Z,4.77
2023-03-28T21:11:37.191Z,4.80
2023-03-28T21:14:07.244Z,4.43
2023-03-28T21:16:37.549Z,4.53
2023-03-28T21:19:05.923Z,5.60
2023-03-28T21:21:34.389Z,4.97
2023-03-28T21:24:05.022Z,4.40
2023-03-28T21:26:32.681Z,4.73
2023-03-28T21:29:00.198Z,4.10
2023-03-28T21:31:29.613Z,4.87
2023-03-28T21:33:59.250Z,4.90
2023-03-28T21:36:28.024Z,5.20
2023-03-28T21:38:56.984Z,4.83
2023-03-28T21:41:25.126Z,5.20
2023-03-28T21:43:54.670Z,4.80
2023-03-28T21:46:22.938Z,4.70
2023-03-28T21:48:50.567Z,5.90
2023-03-28T21:51:18.269Z,4.30
2023-03-28T21:53:46.050Z,4.77
2023-03-28T21:56:14.883Z,4.90
2023-03-28T21:58:42.818Z,4.33
2023-03-28T22:01:13.894Z,4.23
2023-03-28T22:03:41.847Z,4.77
2023-03-28T22:06:10.307Z,5.10
2023-03-28T22:08:38.626Z,4.53
2023-03-28T22:11:17.937Z,4.83
2023-03-28T22:13:47.424Z,4.10
2023-03-28T22:16:15.547Z,4.40
2023-03-28T22:18:49.928Z,4.43
2023-03-28T22:21:17.993Z,4.70
2023-03-28T22:23:47.746Z,5.33
2023-03-28T22:26:16.079Z,4.60
2023-03-28T22:28:44.205Z,4.83
2023-03-28T22:31:12.503Z,4.60
2023-03-28T22:33:40.064Z,4.73
2023-03-28T22:36:08.162Z,4.40
2023-03-28T22:38:36.737Z,4.73
2023-03-28T22:41:04.655Z,4.40
2023-03-28T22:43:34.043Z,4.47
2023-03-28T22:46:01.577Z,4.97
2023-03-28T22:48:32.126Z,3.80
2023-03-28T22:51:01.690Z,4.10
2023-03-28T22:53:29.597Z,4.57
2023-03-28T22:55:57.800Z,4.20
2023-03-28T22:58:28.619Z,3.83
2023-03-28T23:00:56.128Z,4.53
2023-03-28T23:03:23.955Z,4.10
2023-03-28T23:05:51.851Z,4.40
2023-03-28T23:08:19.506Z,4.30
2023-03-28T23:10:47.528Z,4.00
2023-03-28T23:13:14.986Z,4.60
2023-03-28T23:15:42.575Z,4.70
2023-03-28T23:18:10.087Z,3.97
2023-03-28T23:20:38.330Z,3.80
2023-03-28T23:23:06.856Z,4.40
2023-03-28T23:25:34.698Z,4.40
2023-03-28T23:28:02.130Z,4.37
2023-03-28T23:30:29.597Z,4.10
2023-03-28T23:32:57.047Z,3.37
2023-03-28T23:35:24.562Z,4.40
2023-03-28T23:37:53.315Z,4.30
2023-03-28T23:40:21.144Z,4.43
2023-03-28T23:42:48.822Z,4.43
2023-03-28T23:45:16.697Z,4.13
2023-03-28T23:47:44.545Z,3.97
2023-03-28T23:50:12.971Z,3.93
2023-03-28T23:52:40.489Z,4.10
2023-03-28T23:55:10.749Z,3.60
2023-03-28T23:57:38.285Z,4.37
